sensor_id;sensor_type;location;lat;lon;timestamp;temperature;humidity
30973;DHT22;25423;45.624;13.790;2023-03-09T00:01:19;13.90;99.90
30973;DHT22;25423;45.624;13.790;2023-03-09T00:03:45;13.90;99.90
30973;DHT22;25423;45.624;13.790;2023-03-09T00:06:10;13.90;99.90
30973;DHT22;25423;45.624;13.790;2023-03-09T00:08:36;13.90;99.90
30973;DHT22;25423;45.624;13.790;2023-03-09T00:11:03;13.90;99.90
30973;DHT22;25423;45.624;13.790;2023-03-09T00:13:29;13.90;99.90
30973;DHT22;25423;45.624;13.790;2023-03-09T00:15:54;13.90;99.90
30973;DHT22;25423;45.624;13.790;2023-03-09T00:18:20;13.90;99.90
30973;DHT22;25423;45.624;13.790;2023-03-09T00:20:47;14.00;99.90
30973;DHT22;25423;45.624;13.790;2023-03-09T00:23:12;14.00;99.90
30973;DHT22;25423;45.624;13.790;2023-03-09T00:25:38;14.00;99.90
30973;DHT22;25423;45.624;13.790;2023-03-09T00:28:04;14.00;99.90
30973;DHT22;25423;45.624;13.790;2023-03-09T00:30:30;14.00;99.90
30973;DHT22;25423;45.624;13.790;2023-03-09T00:32:56;13.90;99.90
30973;DHT22;25423;45.624;13.790;2023-03-09T00:35:22;14.00;99.90
30973;DHT22;25423;45.624;13.790;2023-03-09T00:37:47;14.00;99.90
30973;DHT22;25423;45.624;13.790;2023-03-09T00:40:13;14.00;99.90
30973;DHT22;25423;45.624;13.790;2023-03-09T00:42:43;13.90;99.90
30973;DHT22;25423;45.624;13.790;2023-03-09T00:45:09;14.00;99.90
30973;DHT22;25423;45.624;13.790;2023-03-09T00:47:35;14.00;99.90
30973;DHT22;25423;45.624;13.790;2023-03-09T00:50:01;13.90;99.90
30973;DHT22;25423;45.624;13.790;2023-03-09T00:52:27;13.90;99.90
30973;DHT22;25423;45.624;13.790;2023-03-09T00:54:52;13.90;99.90
30973;DHT22;25423;45.624;13.790;2023-03-09T00:57:21;13.90;99.90
30973;DHT22;25423;45.624;13.790;2023-03-09T00:59:47;14.00;99.90
30973;DHT22;25423;45.624;13.790;2023-03-09T01:02:13;13.90;99.90
30973;DHT22;25423;45.624;13.790;2023-03-09T01:04:39;13.80;99.90
30973;DHT22;25423;45.624;13.790;2023-03-09T01:07:04;13.80;99.90
30973;DHT22;25423;45.624;13.790;2023-03-09T01:09:30;13.70;99.90
30973;DHT22;25423;45.624;13.790;2023-03-09T01:11:56;13.70;99.90
30973;DHT22;25423;45.624;13.790;2023-03-09T01:14:22;13.80;99.90
30973;DHT22;25423;45.624;13.790;2023-03-09T01:16:47;13.80;99.90
30973;DHT22;25423;45.624;13.790;2023-03-09T01:19:13;13.80;99.90
30973;DHT22;25423;45.624;13.790;2023-03-09T01:21:39;13.70;99.90
30973;DHT22;25423;45.624;13.790;2023-03-09T01:24:05;13.70;99.90
30973;DHT22;25423;45.624;13.790;2023-03-09T01:26:31;13.80;99.90
30973;DHT22;25423;45.624;13.790;2023-03-09T01:28:59;13.70;99.90
30973;DHT22;25423;45.624;13.790;2023-03-09T01:31:29;13.80;99.90
30973;DHT22;25423;45.624;13.790;2023-03-09T01:33:55;13.80;99.90
30973;DHT22;25423;45.624;13.790;2023-03-09T01:36:21;13.70;99.90
30973;DHT22;25423;45.624;13.790;2023-03-09T01:38:47;13.60;99.90
30973;DHT22;25423;45.624;13.790;2023-03-09T01:41:17;13.60;99.90
30973;DHT22;25423;45.624;13.790;2023-03-09T01:43:44;13.50;99.90
30973;DHT22;25423;45.624;13.790;2023-03-09T01:48:42;13.60;99.90
30973;DHT22;25423;45.624;13.790;2023-03-09T01:51:08;13.50;99.90
30973;DHT22;25423;45.624;13.790;2023-03-09T01:53:34;13.40;99.90
30973;DHT22;25423;45.624;13.790;2023-03-09T01:55:59;13.40;99.90
30973;DHT22;25423;45.624;13.790;2023-03-09T01:58:26;13.30;99.90
30973;DHT22;25423;45.624;13.790;2023-03-09T02:01:00;13.30;99.90
30973;DHT22;25423;45.624;13.790;2023-03-09T02:03:36;13.20;99.90
30973;DHT22;25423;45.624;13.790;2023-03-09T02:06:06;13.10;99.90
30973;DHT22;25423;45.624;13.790;2023-03-09T02:08:35;13.00;99.90
30973;DHT22;25423;45.624;13.790;2023-03-09T02:11:03;13.00;99.90
30973;DHT22;25423;45.624;13.790;2023-03-09T02:13:30;12.90;99.90
30973;DHT22;25423;45.624;13.790;2023-03-09T02:15:57;12.90;99.90
30973;DHT22;25423;45.624;13.790;2023-03-09T02:18:22;12.90;99.90
30973;DHT22;25423;45.624;13.790;2023-03-09T02:23:49;12.80;99.90
30973;DHT22;25423;45.624;13.790;2023-03-09T02:28:54;12.70;99.90
30973;DHT22;25423;45.624;13.790;2023-03-09T02:31:22;12.60;99.90
30973;DHT22;25423;45.624;13.790;2023-03-09T02:33:48;12.60;99.90
30973;DHT22;25423;45.624;13.790;2023-03-09T02:36:14;12.60;99.90
30973;DHT22;25423;45.624;13.790;2023-03-09T02:38:39;12.70;99.90
30973;DHT22;25423;45.624;13.790;2023-03-09T02:41:06;12.70;99.90
30973;DHT22;25423;45.624;13.790;2023-03-09T02:43:43;12.70;99.90
30973;DHT22;25423;45.624;13.790;2023-03-09T02:46:09;12.50;99.90
30973;DHT22;25423;45.624;13.790;2023-03-09T02:48:38;12.40;99.90
30973;DHT22;25423;45.624;13.790;2023-03-09T02:51:04;12.40;99.90
30973;DHT22;25423;45.624;13.790;2023-03-09T02:53:31;12.40;99.90
30973;DHT22;25423;45.624;13.790;2023-03-09T02:55:57;12.50;99.90
30973;DHT22;25423;45.624;13.790;2023-03-09T02:58:23;12.50;99.90
30973;DHT22;25423;45.624;13.790;2023-03-09T03:00:49;12.50;99.90
30973;DHT22;25423;45.624;13.790;2023-03-09T03:03:15;12.40;99.90
30973;DHT22;25423;45.624;13.790;2023-03-09T03:05:50;12.40;99.90
30973;DHT22;25423;45.624;13.790;2023-03-09T03:08:16;12.40;99.90
30973;DHT22;25423;45.624;13.790;2023-03-09T03:10:41;12.50;99.90
30973;DHT22;25423;45.624;13.790;2023-03-09T03:13:14;12.50;99.90
30973;DHT22;25423;45.624;13.790;2023-03-09T03:15:40;12.50;99.90
30973;DHT22;25423;45.624;13.790;2023-03-09T03:18:06;12.50;99.90
30973;DHT22;25423;45.624;13.790;2023-03-09T03:20:31;12.50;99.90
30973;DHT22;25423;45.624;13.790;2023-03-09T03:22:57;12.50;99.90
30973;DHT22;25423;45.624;13.790;2023-03-09T03:25:23;12.60;99.90
30973;DHT22;25423;45.624;13.790;2023-03-09T03:27:49;12.60;99.90
30973;DHT22;25423;45.624;13.790;2023-03-09T03:30:15;12.60;99.90
30973;DHT22;25423;45.624;13.790;2023-03-09T03:32:41;12.60;99.90
30973;DHT22;25423;45.624;13.790;2023-03-09T03:35:06;12.70;99.90
30973;DHT22;25423;45.624;13.790;2023-03-09T03:37:32;12.70;99.90
30973;DHT22;25423;45.624;13.790;2023-03-09T03:39:58;12.80;99.90
30973;DHT22;25423;45.624;13.790;2023-03-09T03:42:24;12.70;99.90
30973;DHT22;25423;45.624;13.790;2023-03-09T03:44:50;12.80;99.90
30973;DHT22;25423;45.624;13.790;2023-03-09T03:47:16;12.70;99.90
30973;DHT22;25423;45.624;13.790;2023-03-09T03:49:41;12.80;99.90
30973;DHT22;25423;45.624;13.790;2023-03-09T03:52:07;12.80;99.90
30973;DHT22;25423;45.624;13.790;2023-03-09T03:54:34;12.80;99.90
30973;DHT22;25423;45.624;13.790;2023-03-09T03:57:00;12.80;99.90
30973;DHT22;25423;45.624;13.790;2023-03-09T03:59:26;12.80;99.90
30973;DHT22;25423;45.624;13.790;2023-03-09T04:01:52;12.80;99.90
30973;DHT22;25423;45.624;13.790;2023-03-09T04:04:18;12.80;99.90
30973;DHT22;25423;45.624;13.790;2023-03-09T04:06:44;12.80;99.90
30973;DHT22;25423;45.624;13.790;2023-03-09T04:09:10;12.70;99.90
30973;DHT22;25423;45.624;13.790;2023-03-09T04:11:35;12.80;99.90
30973;DHT22;25423;45.624;13.790;2023-03-09T04:14:01;12.80;99.90
30973;DHT22;25423;45.624;13.790;2023-03-09T04:16:27;12.80;99.90
30973;DHT22;25423;45.624;13.790;2023-03-09T04:18:53;12.80;99.90
30973;DHT22;25423;45.624;13.790;2023-03-09T04:21:22;12.90;99.90
30973;DHT22;25423;45.624;13.790;2023-03-09T04:23:47;12.80;99.90
30973;DHT22;25423;45.624;13.790;2023-03-09T04:26:14;12.90;99.90
30973;DHT22;25423;45.624;13.790;2023-03-09T04:28:39;12.90;99.90
30973;DHT22;25423;45.624;13.790;2023-03-09T04:31:05;12.80;99.90
30973;DHT22;25423;45.624;13.790;2023-03-09T04:33:31;12.80;99.90
30973;DHT22;25423;45.624;13.790;2023-03-09T04:35:57;12.90;99.90
30973;DHT22;25423;45.624;13.790;2023-03-09T04:38:22;12.90;99.90
30973;DHT22;25423;45.624;13.790;2023-03-09T04:40:48;12.90;99.90
30973;DHT22;25423;45.624;13.790;2023-03-09T04:43:24;12.90;99.90
30973;DHT22;25423;45.624;13.790;2023-03-09T04:45:50;12.80;99.90
30973;DHT22;25423;45.624;13.790;2023-03-09T04:48:15;12.80;99.90
30973;DHT22;25423;45.624;13.790;2023-03-09T04:50:41;12.90;99.90
30973;DHT22;25423;45.624;13.790;2023-03-09T04:53:08;13.00;99.90
30973;DHT22;25423;45.624;13.790;2023-03-09T04:55:34;13.10;99.90
30973;DHT22;25423;45.624;13.790;2023-03-09T04:58:02;13.00;99.90
30973;DHT22;25423;45.624;13.790;2023-03-09T05:00:27;13.00;99.90
30973;DHT22;25423;45.624;13.790;2023-03-09T05:02:53;13.00;99.90
30973;DHT22;25423;45.624;13.790;2023-03-09T05:05:19;12.90;99.90
30973;DHT22;25423;45.624;13.790;2023-03-09T05:07:45;13.00;99.90
30973;DHT22;25423;45.624;13.790;2023-03-09T05:10:11;13.00;99.90
30973;DHT22;25423;45.624;13.790;2023-03-09T05:12:36;13.10;99.90
30973;DHT22;25423;45.624;13.790;2023-03-09T05:15:02;13.10;99.90
30973;DHT22;25423;45.624;13.790;2023-03-09T05:17:29;13.10;99.90
30973;DHT22;25423;45.624;13.790;2023-03-09T05:19:55;13.10;99.90
30973;DHT22;25423;45.624;13.790;2023-03-09T05:22:21;13.00;99.90
30973;DHT22;25423;45.624;13.790;2023-03-09T05:24:47;13.10;99.90
30973;DHT22;25423;45.624;13.790;2023-03-09T05:27:13;13.00;99.90
30973;DHT22;25423;45.624;13.790;2023-03-09T05:29:39;12.90;99.90
30973;DHT22;25423;45.624;13.790;2023-03-09T05:32:04;12.80;99.90
30973;DHT22;25423;45.624;13.790;2023-03-09T05:34:31;12.80;99.90
30973;DHT22;25423;45.624;13.790;2023-03-09T05:36:56;12.70;99.90
30973;DHT22;25423;45.624;13.790;2023-03-09T05:39:22;12.60;99.90
30973;DHT22;25423;45.624;13.790;2023-03-09T05:41:48;12.60;99.90
30973;DHT22;25423;45.624;13.790;2023-03-09T05:44:14;12.50;99.90
30973;DHT22;25423;45.624;13.790;2023-03-09T05:46:39;12.40;99.90
30973;DHT22;25423;45.624;13.790;2023-03-09T05:49:05;12.40;99.90
30973;DHT22;25423;45.624;13.790;2023-03-09T05:51:31;12.40;99.90
30973;DHT22;25423;45.624;13.790;2023-03-09T05:53:57;12.30;99.90
30973;DHT22;25423;45.624;13.790;2023-03-09T05:56:22;12.20;99.90
30973;DHT22;25423;45.624;13.790;2023-03-09T05:58:49;12.10;99.90
30973;DHT22;25423;45.624;13.790;2023-03-09T06:01:22;12.10;99.90
30973;DHT22;25423;45.624;13.790;2023-03-09T06:03:48;12.10;99.90
30973;DHT22;25423;45.624;13.790;2023-03-09T06:06:14;12.10;99.90
30973;DHT22;25423;45.624;13.790;2023-03-09T06:08:40;12.10;99.90
30973;DHT22;25423;45.624;13.790;2023-03-09T06:11:06;12.00;99.90
30973;DHT22;25423;45.624;13.790;2023-03-09T06:13:31;12.00;99.90
30973;DHT22;25423;45.624;13.790;2023-03-09T06:15:57;11.90;99.90
30973;DHT22;25423;45.624;13.790;2023-03-09T06:18:23;11.90;99.90
30973;DHT22;25423;45.624;13.790;2023-03-09T06:20:49;11.80;99.90
30973;DHT22;25423;45.624;13.790;2023-03-09T06:23:14;11.90;99.90
30973;DHT22;25423;45.624;13.790;2023-03-09T06:25:40;11.90;99.90
30973;DHT22;25423;45.624;13.790;2023-03-09T06:28:06;11.80;99.90
30973;DHT22;25423;45.624;13.790;2023-03-09T06:30:32;11.80;99.90
30973;DHT22;25423;45.624;13.790;2023-03-09T06:32:57;11.80;99.90
30973;DHT22;25423;45.624;13.790;2023-03-09T06:35:23;11.80;99.90
30973;DHT22;25423;45.624;13.790;2023-03-09T06:37:49;11.80;99.90
30973;DHT22;25423;45.624;13.790;2023-03-09T06:40:15;11.80;99.90
30973;DHT22;25423;45.624;13.790;2023-03-09T06:42:41;11.80;99.90
30973;DHT22;25423;45.624;13.790;2023-03-09T06:45:07;11.80;99.90
30973;DHT22;25423;45.624;13.790;2023-03-09T06:47:39;11.90;99.90
30973;DHT22;25423;45.624;13.790;2023-03-09T06:50:05;11.90;99.90
30973;DHT22;25423;45.624;13.790;2023-03-09T06:52:31;11.90;99.90
30973;DHT22;25423;45.624;13.790;2023-03-09T06:54:56;11.90;99.90
30973;DHT22;25423;45.624;13.790;2023-03-09T06:57:22;11.90;99.90
30973;DHT22;25423;45.624;13.790;2023-03-09T06:59:48;11.90;99.90
30973;DHT22;25423;45.624;13.790;2023-03-09T07:02:14;11.90;99.90
30973;DHT22;25423;45.624;13.790;2023-03-09T07:04:40;12.00;99.90
30973;DHT22;25423;45.624;13.790;2023-03-09T07:07:06;12.00;99.90
30973;DHT22;25423;45.624;13.790;2023-03-09T07:09:34;12.10;99.90
30973;DHT22;25423;45.624;13.790;2023-03-09T07:12:00;12.10;99.90
30973;DHT22;25423;45.624;13.790;2023-03-09T07:14:28;12.20;99.90
30973;DHT22;25423;45.624;13.790;2023-03-09T07:16:55;12.20;99.90
30973;DHT22;25423;45.624;13.790;2023-03-09T07:19:21;12.20;99.90
30973;DHT22;25423;45.624;13.790;2023-03-09T07:21:47;12.20;99.90
30973;DHT22;25423;45.624;13.790;2023-03-09T07:24:13;12.20;99.90
30973;DHT22;25423;45.624;13.790;2023-03-09T07:26:39;12.20;99.90
30973;DHT22;25423;45.624;13.790;2023-03-09T07:29:04;12.20;99.90
30973;DHT22;25423;45.624;13.790;2023-03-09T07:31:31;12.30;99.90
30973;DHT22;25423;45.624;13.790;2023-03-09T07:33:57;12.30;99.90
30973;DHT22;25423;45.624;13.790;2023-03-09T07:36:23;12.30;99.90
30973;DHT22;25423;45.624;13.790;2023-03-09T07:38:48;12.40;99.90
30973;DHT22;25423;45.624;13.790;2023-03-09T07:41:15;12.40;99.90
30973;DHT22;25423;45.624;13.790;2023-03-09T07:43:41;12.40;99.90
30973;DHT22;25423;45.624;13.790;2023-03-09T07:46:10;12.40;99.90
30973;DHT22;25423;45.624;13.790;2023-03-09T07:48:37;12.30;99.90
30973;DHT22;25423;45.624;13.790;2023-03-09T07:51:03;12.30;99.90
30973;DHT22;25423;45.624;13.790;2023-03-09T07:53:29;12.40;99.90
30973;DHT22;25423;45.624;13.790;2023-03-09T07:55:56;12.40;99.90
30973;DHT22;25423;45.624;13.790;2023-03-09T07:58:22;12.40;99.90
30973;DHT22;25423;45.624;13.790;2023-03-09T08:00:47;12.40;99.90
30973;DHT22;25423;45.624;13.790;2023-03-09T08:03:13;12.40;99.90
30973;DHT22;25423;45.624;13.790;2023-03-09T08:05:40;12.40;99.90
30973;DHT22;25423;45.624;13.790;2023-03-09T08:08:05;12.50;99.90
30973;DHT22;25423;45.624;13.790;2023-03-09T08:10:34;12.50;99.90
30973;DHT22;25423;45.624;13.790;2023-03-09T08:13:00;12.50;99.90
30973;DHT22;25423;45.624;13.790;2023-03-09T08:15:26;12.60;99.90
30973;DHT22;25423;45.624;13.790;2023-03-09T08:17:51;12.60;99.90
30973;DHT22;25423;45.624;13.790;2023-03-09T08:20:20;12.60;99.90
30973;DHT22;25423;45.624;13.790;2023-03-09T08:22:46;12.60;99.90
30973;DHT22;25423;45.624;13.790;2023-03-09T08:25:12;12.60;99.90
30973;DHT22;25423;45.624;13.790;2023-03-09T08:27:41;12.60;99.90
30973;DHT22;25423;45.624;13.790;2023-03-09T08:30:08;12.70;99.90
30973;DHT22;25423;45.624;13.790;2023-03-09T08:32:34;12.70;99.90
30973;DHT22;25423;45.624;13.790;2023-03-09T08:34:59;12.80;99.90
30973;DHT22;25423;45.624;13.790;2023-03-09T08:37:25;12.70;99.90
30973;DHT22;25423;45.624;13.790;2023-03-09T08:39:51;12.80;99.90
30973;DHT22;25423;45.624;13.790;2023-03-09T08:42:17;12.80;99.90
30973;DHT22;25423;45.624;13.790;2023-03-09T08:44:42;12.90;99.90
30973;DHT22;25423;45.624;13.790;2023-03-09T08:47:08;13.00;99.90
30973;DHT22;25423;45.624;13.790;2023-03-09T08:49:34;13.00;99.90
30973;DHT22;25423;45.624;13.790;2023-03-09T08:52:02;13.10;99.90
30973;DHT22;25423;45.624;13.790;2023-03-09T08:54:28;13.20;99.90
30973;DHT22;25423;45.624;13.790;2023-03-09T08:56:54;13.10;99.90
30973;DHT22;25423;45.624;13.790;2023-03-09T08:59:19;13.20;99.90
30973;DHT22;25423;45.624;13.790;2023-03-09T09:01:45;13.10;99.90
30973;DHT22;25423;45.624;13.790;2023-03-09T09:04:11;13.20;99.90
30973;DHT22;25423;45.624;13.790;2023-03-09T09:06:36;13.30;99.90
30973;DHT22;25423;45.624;13.790;2023-03-09T09:09:02;13.30;99.90
30973;DHT22;25423;45.624;13.790;2023-03-09T09:11:28;13.40;99.90
30973;DHT22;25423;45.624;13.790;2023-03-09T09:13:55;13.40;99.90
30973;DHT22;25423;45.624;13.790;2023-03-09T09:16:20;13.50;99.90
30973;DHT22;25423;45.624;13.790;2023-03-09T09:18:46;13.50;99.90
30973;DHT22;25423;45.624;13.790;2023-03-09T09:21:13;13.50;99.90
30973;DHT22;25423;45.624;13.790;2023-03-09T09:23:40;13.60;99.90
30973;DHT22;25423;45.624;13.790;2023-03-09T09:26:06;13.70;99.90
30973;DHT22;25423;45.624;13.790;2023-03-09T09:28:32;13.70;99.90
30973;DHT22;25423;45.624;13.790;2023-03-09T09:30:59;13.90;99.90
30973;DHT22;25423;45.624;13.790;2023-03-09T09:33:26;13.90;99.90
30973;DHT22;25423;45.624;13.790;2023-03-09T09:36:00;13.90;99.90
30973;DHT22;25423;45.624;13.790;2023-03-09T09:38:26;13.90;99.90
30973;DHT22;25423;45.624;13.790;2023-03-09T09:40:53;14.00;99.90
30973;DHT22;25423;45.624;13.790;2023-03-09T09:43:20;14.00;99.90
30973;DHT22;25423;45.624;13.790;2023-03-09T09:45:46;14.20;99.90
30973;DHT22;25423;45.624;13.790;2023-03-09T09:48:12;14.30;99.90
30973;DHT22;25423;45.624;13.790;2023-03-09T09:55:47;14.50;99.90
30973;DHT22;25423;45.624;13.790;2023-03-09T10:00:47;14.70;99.90
30973;DHT22;25423;45.624;13.790;2023-03-09T10:05:51;14.80;99.90
30973;DHT22;25423;45.624;13.790;2023-03-09T10:11:02;15.10;99.90
30973;DHT22;25423;45.624;13.790;2023-03-09T10:13:30;15.20;99.90
30973;DHT22;25423;45.624;13.790;2023-03-09T10:15:58;15.30;99.90
30973;DHT22;25423;45.624;13.790;2023-03-09T10:18:48;15.30;99.90
30973;DHT22;25423;45.624;13.790;2023-03-09T10:21:13;15.30;99.90
30973;DHT22;25423;45.624;13.790;2023-03-09T10:23:41;15.20;99.90
30973;DHT22;25423;45.624;13.790;2023-03-09T10:28:45;15.30;99.90
30973;DHT22;25423;45.624;13.790;2023-03-09T10:31:16;15.30;99.90
30973;DHT22;25423;45.624;13.790;2023-03-09T10:33:44;15.30;99.90
30973;DHT22;25423;45.624;13.790;2023-03-09T10:36:18;15.30;99.90
30973;DHT22;25423;45.624;13.790;2023-03-09T10:38:47;15.20;99.90
30973;DHT22;25423;45.624;13.790;2023-03-09T10:41:14;15.20;99.90
30973;DHT22;25423;45.624;13.790;2023-03-09T10:43:41;15.20;99.90
30973;DHT22;25423;45.624;13.790;2023-03-09T10:48:33;15.20;99.90
30973;DHT22;25423;45.624;13.790;2023-03-09T10:51:00;15.30;99.90
30973;DHT22;25423;45.624;13.790;2023-03-09T10:53:28;15.30;99.90
30973;DHT22;25423;45.624;13.790;2023-03-09T10:55:56;15.40;99.90
30973;DHT22;25423;45.624;13.790;2023-03-09T10:58:26;15.40;99.90
30973;DHT22;25423;45.624;13.790;2023-03-09T11:00:54;15.50;99.90
30973;DHT22;25423;45.624;13.790;2023-03-09T11:03:24;15.60;99.90
30973;DHT22;25423;45.624;13.790;2023-03-09T11:05:51;15.60;99.90
30973;DHT22;25423;45.624;13.790;2023-03-09T11:08:24;15.70;99.90
30973;DHT22;25423;45.624;13.790;2023-03-09T11:10:59;15.70;99.90
30973;DHT22;25423;45.624;13.790;2023-03-09T11:13:25;15.70;99.90
30973;DHT22;25423;45.624;13.790;2023-03-09T11:16:14;15.60;99.90
30973;DHT22;25423;45.624;13.790;2023-03-09T11:18:37;15.70;99.90
30973;DHT22;25423;45.624;13.790;2023-03-09T11:21:02;15.70;99.90
30973;DHT22;25423;45.624;13.790;2023-03-09T11:28:53;15.80;99.90
30973;DHT22;25423;45.624;13.790;2023-03-09T11:31:29;15.80;99.90
30973;DHT22;25423;45.624;13.790;2023-03-09T11:33:57;15.80;99.90
30973;DHT22;25423;45.624;13.790;2023-03-09T11:36:26;15.80;99.90
30973;DHT22;25423;45.624;13.790;2023-03-09T11:38:54;15.90;99.90
30973;DHT22;25423;45.624;13.790;2023-03-09T11:41:28;16.00;99.90
30973;DHT22;25423;45.624;13.790;2023-03-09T11:44:02;16.10;99.90
30973;DHT22;25423;45.624;13.790;2023-03-09T11:46:31;16.10;99.90
30973;DHT22;25423;45.624;13.790;2023-03-09T11:49:04;16.20;99.90
30973;DHT22;25423;45.624;13.790;2023-03-09T11:51:34;16.30;99.90
30973;DHT22;25423;45.624;13.790;2023-03-09T11:56:28;16.30;99.90
30973;DHT22;25423;45.624;13.790;2023-03-09T11:58:56;16.30;99.90
30973;DHT22;25423;45.624;13.790;2023-03-09T12:01:28;16.40;99.90
30973;DHT22;25423;45.624;13.790;2023-03-09T12:03:57;16.30;99.90
30973;DHT22;25423;45.624;13.790;2023-03-09T12:06:41;16.30;99.90
30973;DHT22;25423;45.624;13.790;2023-03-09T12:09:09;16.20;99.90
30973;DHT22;25423;45.624;13.790;2023-03-09T12:11:41;16.20;99.90
30973;DHT22;25423;45.624;13.790;2023-03-09T12:14:13;16.20;99.90
30973;DHT22;25423;45.624;13.790;2023-03-09T12:16:42;16.40;99.90
30973;DHT22;25423;45.624;13.790;2023-03-09T12:21:35;16.30;99.90
30973;DHT22;25423;45.624;13.790;2023-03-09T12:24:13;16.40;99.90
30973;DHT22;25423;45.624;13.790;2023-03-09T12:26:45;16.50;99.90
30973;DHT22;25423;45.624;13.790;2023-03-09T12:29:21;16.60;99.90
30973;DHT22;25423;45.624;13.790;2023-03-09T12:34:39;16.70;99.90
30973;DHT22;25423;45.624;13.790;2023-03-09T12:39:56;16.80;99.90
30973;DHT22;25423;45.624;13.790;2023-03-09T12:49:49;16.70;99.90
30973;DHT22;25423;45.624;13.790;2023-03-09T12:52:25;16.70;99.90
30973;DHT22;25423;45.624;13.790;2023-03-09T12:54:58;16.70;99.90
30973;DHT22;25423;45.624;13.790;2023-03-09T12:57:25;16.70;99.90
30973;DHT22;25423;45.624;13.790;2023-03-09T12:59:51;16.60;99.90
30973;DHT22;25423;45.624;13.790;2023-03-09T13:02:23;16.60;99.90
30973;DHT22;25423;45.624;13.790;2023-03-09T13:07:34;16.50;99.90
30973;DHT22;25423;45.624;13.790;2023-03-09T13:10:00;16.40;99.90
30973;DHT22;25423;45.624;13.790;2023-03-09T13:12:29;16.40;99.90
30973;DHT22;25423;45.624;13.790;2023-03-09T13:20:22;16.20;99.90
30973;DHT22;25423;45.624;13.790;2023-03-09T13:22:42;16.10;99.90
30973;DHT22;25423;45.624;13.790;2023-03-09T13:25:27;16.10;99.90
30973;DHT22;25423;45.624;13.790;2023-03-09T13:27:56;16.10;99.90
30973;DHT22;25423;45.624;13.790;2023-03-09T13:30:26;16.00;99.90
30973;DHT22;25423;45.624;13.790;2023-03-09T13:35:22;15.90;99.90
30973;DHT22;25423;45.624;13.790;2023-03-09T13:37:53;15.90;99.90
30973;DHT22;25423;45.624;13.790;2023-03-09T13:40:29;15.90;99.90
30973;DHT22;25423;45.624;13.790;2023-03-09T13:42:55;15.90;99.90
30973;DHT22;25423;45.624;13.790;2023-03-09T13:45:22;15.90;99.90
30973;DHT22;25423;45.624;13.790;2023-03-09T13:47:52;16.00;99.90
30973;DHT22;25423;45.624;13.790;2023-03-09T13:50:18;15.90;99.90
30973;DHT22;25423;45.624;13.790;2023-03-09T13:53:00;15.90;99.90
30973;DHT22;25423;45.624;13.790;2023-03-09T13:55:26;15.90;99.90
30973;DHT22;25423;45.624;13.790;2023-03-09T13:57:53;16.00;99.90
30973;DHT22;25423;45.624;13.790;2023-03-09T14:02:45;16.00;99.90
30973;DHT22;25423;45.624;13.790;2023-03-09T14:10:31;16.00;99.90
30973;DHT22;25423;45.624;13.790;2023-03-09T14:13:01;16.00;99.90
30973;DHT22;25423;45.624;13.790;2023-03-09T14:15:27;16.00;99.90
30973;DHT22;25423;45.624;13.790;2023-03-09T14:17:53;15.90;99.90
30973;DHT22;25423;45.624;13.790;2023-03-09T14:20:20;15.80;99.90
30973;DHT22;25423;45.624;13.790;2023-03-09T14:22:46;15.80;99.90
30973;DHT22;25423;45.624;13.790;2023-03-09T14:27:52;15.60;99.90
30973;DHT22;25423;45.624;13.790;2023-03-09T14:33:00;15.40;99.90
30973;DHT22;25423;45.624;13.790;2023-03-09T14:35:33;15.40;99.90
30973;DHT22;25423;45.624;13.790;2023-03-09T14:38:00;15.40;99.90
30973;DHT22;25423;45.624;13.790;2023-03-09T14:40:27;15.60;99.90
30973;DHT22;25423;45.624;13.790;2023-03-09T14:42:53;15.70;99.90
30973;DHT22;25423;45.624;13.790;2023-03-09T14:45:20;15.80;99.90
30973;DHT22;25423;45.624;13.790;2023-03-09T14:47:47;15.80;99.90
30973;DHT22;25423;45.624;13.790;2023-03-09T14:50:19;15.70;99.90
30973;DHT22;25423;45.624;13.790;2023-03-09T14:52:45;15.70;99.90
30973;DHT22;25423;45.624;13.790;2023-03-09T14:55:14;15.80;99.90
30973;DHT22;25423;45.624;13.790;2023-03-09T14:57:40;15.80;99.90
30973;DHT22;25423;45.624;13.790;2023-03-09T15:00:12;15.70;99.90
30973;DHT22;25423;45.624;13.790;2023-03-09T15:02:37;15.70;99.90
30973;DHT22;25423;45.624;13.790;2023-03-09T15:05:05;15.70;99.90
30973;DHT22;25423;45.624;13.790;2023-03-09T15:07:31;15.70;99.90
30973;DHT22;25423;45.624;13.790;2023-03-09T15:09:56;15.80;99.90
30973;DHT22;25423;45.624;13.790;2023-03-09T15:12:22;15.80;99.90
30973;DHT22;25423;45.624;13.790;2023-03-09T15:14:48;15.90;99.90
30973;DHT22;25423;45.624;13.790;2023-03-09T15:17:15;15.90;99.90
30973;DHT22;25423;45.624;13.790;2023-03-09T15:19:41;15.90;99.90
30973;DHT22;25423;45.624;13.790;2023-03-09T15:22:09;15.90;99.90
30973;DHT22;25423;45.624;13.790;2023-03-09T15:24:35;15.90;99.90
30973;DHT22;25423;45.624;13.790;2023-03-09T15:27:01;16.00;99.90
30973;DHT22;25423;45.624;13.790;2023-03-09T15:29:27;16.00;99.90
30973;DHT22;25423;45.624;13.790;2023-03-09T15:31:52;16.10;99.90
30973;DHT22;25423;45.624;13.790;2023-03-09T15:34:18;16.10;99.90
30973;DHT22;25423;45.624;13.790;2023-03-09T15:36:44;16.10;99.90
30973;DHT22;25423;45.624;13.790;2023-03-09T15:39:09;16.10;99.90
30973;DHT22;25423;45.624;13.790;2023-03-09T15:41:35;16.10;99.90
30973;DHT22;25423;45.624;13.790;2023-03-09T15:44:01;16.10;99.90
30973;DHT22;25423;45.624;13.790;2023-03-09T15:46:26;16.20;99.90
30973;DHT22;25423;45.624;13.790;2023-03-09T15:48:52;16.30;99.90
30973;DHT22;25423;45.624;13.790;2023-03-09T15:51:18;16.30;99.90
30973;DHT22;25423;45.624;13.790;2023-03-09T15:53:44;16.40;99.90
30973;DHT22;25423;45.624;13.790;2023-03-09T15:56:10;16.30;99.90
30973;DHT22;25423;45.624;13.790;2023-03-09T15:58:36;16.30;99.90
30973;DHT22;25423;45.624;13.790;2023-03-09T16:01:04;16.20;99.90
30973;DHT22;25423;45.624;13.790;2023-03-09T16:03:30;16.30;99.90
30973;DHT22;25423;45.624;13.790;2023-03-09T16:05:56;16.40;99.90
30973;DHT22;25423;45.624;13.790;2023-03-09T16:08:22;16.40;99.90
30973;DHT22;25423;45.624;13.790;2023-03-09T16:10:48;16.50;99.90
30973;DHT22;25423;45.624;13.790;2023-03-09T16:13:14;16.30;99.90
30973;DHT22;25423;45.624;13.790;2023-03-09T16:15:40;16.30;99.90
30973;DHT22;25423;45.624;13.790;2023-03-09T16:18:06;16.30;99.90
30973;DHT22;25423;45.624;13.790;2023-03-09T16:20:33;16.30;99.90
30973;DHT22;25423;45.624;13.790;2023-03-09T16:22:58;16.40;99.90
30973;DHT22;25423;45.624;13.790;2023-03-09T16:25:24;16.40;99.90
30973;DHT22;25423;45.624;13.790;2023-03-09T16:27:50;16.30;99.90